sensor_id;sensor_type;location;lat;lon;timestamp;P1;durP1;ratioP1;P2;durP2;ratioP2
6979;SDS011;3530;52.832;10.680;2022-11-13T00:00:25;11.30;;;8.30;;
6979;SDS011;3530;52.832;10.680;2022-11-13T00:02:50;12.13;;;9.32;;
6979;SDS011;3530;52.832;10.680;2022-11-13T00:05:15;16.65;;;10.02;;
6979;SDS011;3530;52.832;10.680;2022-11-13T00:07:41;13.90;;;9.35;;
6979;SDS011;3530;52.832;10.680;2022-11-13T00:10:06;16.95;;;10.45;;
6979;SDS011;3530;52.832;10.680;2022-11-13T00:12:33;16.65;;;11.02;;
6979;SDS011;3530;52.832;10.680;2022-11-13T00:14:58;18.63;;;11.80;;
6979;SDS011;3530;52.832;10.680;2022-11-13T00:17:23;23.92;;;13.55;;
6979;SDS011;3530;52.832;10.680;2022-11-13T00:19:49;21.05;;;13.05;;
6979;SDS011;3530;52.832;10.680;2022-11-13T00:22:14;21.80;;;12.00;;
6979;SDS011;3530;52.832;10.680;2022-11-13T00:24:40;19.83;;;11.25;;
6979;SDS011;3530;52.832;10.680;2022-11-13T00:27:05;20.52;;;11.77;;
6979;SDS011;3530;52.832;10.680;2022-11-13T00:29:31;20.77;;;10.88;;
6979;SDS011;3530;52.832;10.680;2022-11-13T00:31:56;17.15;;;12.25;;
6979;SDS011;3530;52.832;10.680;2022-11-13T00:34:21;20.75;;;12.88;;
6979;SDS011;3530;52.832;10.680;2022-11-13T00:36:47;21.50;;;12.02;;
6979;SDS011;3530;52.832;10.680;2022-11-13T00:39:12;22.52;;;12.98;;
6979;SDS011;3530;52.832;10.680;2022-11-13T00:41:37;19.92;;;12.85;;
6979;SDS011;3530;52.832;10.680;2022-11-13T00:44:03;22.27;;;13.50;;
6979;SDS011;3530;52.832;10.680;2022-11-13T00:46:28;26.20;;;13.85;;
6979;SDS011;3530;52.832;10.680;2022-11-13T00:48:54;19.83;;;11.95;;
6979;SDS011;3530;52.832;10.680;2022-11-13T00:51:19;20.70;;;12.82;;
6979;SDS011;3530;52.832;10.680;2022-11-13T00:53:45;18.65;;;11.68;;
6979;SDS011;3530;52.832;10.680;2022-11-13T00:56:10;25.13;;;14.27;;
6979;SDS011;3530;52.832;10.680;2022-11-13T00:58:36;25.08;;;13.70;;
6979;SDS011;3530;52.832;10.680;2022-11-13T01:01:02;17.90;;;12.30;;
6979;SDS011;3530;52.832;10.680;2022-11-13T01:03:32;23.58;;;12.68;;
6979;SDS011;3530;52.832;10.680;2022-11-13T01:05:58;17.63;;;12.23;;
6979;SDS011;3530;52.832;10.680;2022-11-13T01:08:24;24.00;;;14.43;;
6979;SDS011;3530;52.832;10.680;2022-11-13T01:10:49;18.50;;;13.27;;
6979;SDS011;3530;52.832;10.680;2022-11-13T01:13:15;21.17;;;12.80;;
6979;SDS011;3530;52.832;10.680;2022-11-13T01:15:41;18.52;;;12.82;;
6979;SDS011;3530;52.832;10.680;2022-11-13T01:18:07;20.17;;;12.48;;
6979;SDS011;3530;52.832;10.680;2022-11-13T01:20:33;25.48;;;12.88;;
6979;SDS011;3530;52.832;10.680;2022-11-13T01:22:59;17.95;;;12.02;;
6979;SDS011;3530;52.832;10.680;2022-11-13T01:25:25;17.92;;;12.07;;
6979;SDS011;3530;52.832;10.680;2022-11-13T01:27:51;22.70;;;12.95;;
6979;SDS011;3530;52.832;10.680;2022-11-13T01:30:16;20.02;;;12.10;;
6979;SDS011;3530;52.832;10.680;2022-11-13T01:32:42;18.63;;;12.57;;
6979;SDS011;3530;52.832;10.680;2022-11-13T01:35:07;13.90;;;11.13;;
6979;SDS011;3530;52.832;10.680;2022-11-13T01:37:33;18.83;;;12.55;;
6979;SDS011;3530;52.832;10.680;2022-11-13T01:39:58;17.55;;;11.68;;
6979;SDS011;3530;52.832;10.680;2022-11-13T01:42:23;17.23;;;11.38;;
6979;SDS011;3530;52.832;10.680;2022-11-13T01:44:50;18.88;;;11.52;;
6979;SDS011;3530;52.832;10.680;2022-11-13T01:47:17;14.95;;;11.30;;
6979;SDS011;3530;52.832;10.680;2022-11-13T01:49:44;16.17;;;10.68;;
6979;SDS011;3530;52.832;10.680;2022-11-13T01:52:20;13.70;;;10.27;;
6979;SDS011;3530;52.832;10.680;2022-11-13T01:54:51;11.88;;;9.77;;
6979;SDS011;3530;52.832;10.680;2022-11-13T01:57:18;12.65;;;10.60;;
6979;SDS011;3530;52.832;10.680;2022-11-13T01:59:45;11.15;;;9.57;;
6979;SDS011;3530;52.832;10.680;2022-11-13T02:02:13;11.60;;;9.77;;
6979;SDS011;3530;52.832;10.680;2022-11-13T02:04:39;11.20;;;9.45;;
6979;SDS011;3530;52.832;10.680;2022-11-13T02:07:06;14.63;;;9.85;;
6979;SDS011;3530;52.832;10.680;2022-11-13T02:09:35;14.50;;;10.57;;
6979;SDS011;3530;52.832;10.680;2022-11-13T02:12:02;10.50;;;9.43;;
6979;SDS011;3530;52.832;10.680;2022-11-13T02:14:30;10.25;;;9.05;;
6979;SDS011;3530;52.832;10.680;2022-11-13T02:16:59;9.82;;;8.77;;
6979;SDS011;3530;52.832;10.680;2022-11-13T02:19:31;10.57;;;9.48;;
6979;SDS011;3530;52.832;10.680;2022-11-13T02:22:02;11.27;;;9.90;;
6979;SDS011;3530;52.832;10.680;2022-11-13T02:24:31;10.85;;;9.35;;
6979;SDS011;3530;52.832;10.680;2022-11-13T02:27:00;12.13;;;9.15;;
6979;SDS011;3530;52.832;10.680;2022-11-13T02:29:27;13.27;;;9.50;;
6979;SDS011;3530;52.832;10.680;2022-11-13T02:31:52;11.38;;;10.05;;
6979;SDS011;3530;52.832;10.680;2022-11-13T02:34:18;12.85;;;10.80;;
6979;SDS011;3530;52.832;10.680;2022-11-13T02:36:43;10.57;;;9.50;;
6979;SDS011;3530;52.832;10.680;2022-11-13T02:39:10;12.02;;;9.80;;
6979;SDS011;3530;52.832;10.680;2022-11-13T02:41:36;11.57;;;9.75;;
6979;SDS011;3530;52.832;10.680;2022-11-13T02:44:03;13.85;;;10.57;;
6979;SDS011;3530;52.832;10.680;2022-11-13T02:46:31;10.32;;;9.32;;
6979;SDS011;3530;52.832;10.680;2022-11-13T02:48:57;12.30;;;9.57;;
6979;SDS011;3530;52.832;10.680;2022-11-13T02:51:22;12.63;;;9.25;;
6979;SDS011;3530;52.832;10.680;2022-11-13T02:53:48;10.68;;;9.15;;
6979;SDS011;3530;52.832;10.680;2022-11-13T02:56:13;11.20;;;8.15;;
6979;SDS011;3530;52.832;10.680;2022-11-13T02:58:38;8.70;;;7.50;;
6979;SDS011;3530;52.832;10.680;2022-11-13T03:01:04;11.13;;;8.18;;
6979;SDS011;3530;52.832;10.680;2022-11-13T03:03:29;10.63;;;8.93;;
6979;SDS011;3530;52.832;10.680;2022-11-13T03:05:55;12.50;;;10.40;;
6979;SDS011;3530;52.832;10.680;2022-11-13T03:08:20;12.60;;;9.80;;
6979;SDS011;3530;52.832;10.680;2022-11-13T03:10:46;10.88;;;9.13;;
6979;SDS011;3530;52.832;10.680;2022-11-13T03:13:11;10.80;;;9.25;;
6979;SDS011;3530;52.832;10.680;2022-11-13T03:15:37;10.68;;;8.93;;
6979;SDS011;3530;52.832;10.680;2022-11-13T03:18:03;12.90;;;10.07;;
6979;SDS011;3530;52.832;10.680;2022-11-13T03:20:29;11.90;;;9.25;;
6979;SDS011;3530;52.832;10.680;2022-11-13T03:22:54;11.40;;;9.93;;
6979;SDS011;3530;52.832;10.680;2022-11-13T03:25:20;13.20;;;10.20;;
6979;SDS011;3530;52.832;10.680;2022-11-13T03:27:45;12.30;;;8.48;;
6979;SDS011;3530;52.832;10.680;2022-11-13T03:30:10;12.93;;;9.90;;
6979;SDS011;3530;52.832;10.680;2022-11-13T03:32:36;10.98;;;9.27;;
6979;SDS011;3530;52.832;10.680;2022-11-13T03:35:01;11.57;;;8.85;;
6979;SDS011;3530;52.832;10.680;2022-11-13T03:37:27;11.68;;;9.25;;
6979;SDS011;3530;52.832;10.680;2022-11-13T03:39:52;9.88;;;8.85;;
6979;SDS011;3530;52.832;10.680;2022-11-13T03:42:18;10.80;;;8.75;;
6979;SDS011;3530;52.832;10.680;2022-11-13T03:44:43;12.00;;;8.52;;
6979;SDS011;3530;52.832;10.680;2022-11-13T03:47:08;9.43;;;8.45;;
6979;SDS011;3530;52.832;10.680;2022-11-13T03:49:34;13.85;;;9.05;;
6979;SDS011;3530;52.832;10.680;2022-11-13T03:51:59;11.50;;;9.10;;
6979;SDS011;3530;52.832;10.680;2022-11-13T03:54:24;13.52;;;10.07;;
6979;SDS011;3530;52.832;10.680;2022-11-13T03:56:50;11.68;;;9.18;;
6979;SDS011;3530;52.832;10.680;2022-11-13T03:59:15;12.07;;;9.52;;
6979;SDS011;3530;52.832;10.680;2022-11-13T04:01:40;12.43;;;10.00;;
6979;SDS011;3530;52.832;10.680;2022-11-13T04:04:06;12.25;;;9.77;;
6979;SDS011;3530;52.832;10.680;2022-11-13T04:06:31;13.40;;;10.52;;
6979;SDS011;3530;52.832;10.680;2022-11-13T04:08:56;12.80;;;9.73;;
6979;SDS011;3530;52.832;10.680;2022-11-13T04:11:22;11.32;;;9.80;;
6979;SDS011;3530;52.832;10.680;2022-11-13T04:13:47;11.57;;;9.13;;
6979;SDS011;3530;52.832;10.680;2022-11-13T04:16:13;10.95;;;9.35;;
6979;SDS011;3530;52.832;10.680;2022-11-13T04:18:38;14.50;;;9.52;;
6979;SDS011;3530;52.832;10.680;2022-11-13T04:21:04;12.48;;;9.68;;
6979;SDS011;3530;52.832;10.680;2022-11-13T04:23:29;11.75;;;8.80;;
6979;SDS011;3530;52.832;10.680;2022-11-13T04:25:55;13.57;;;10.80;;
6979;SDS011;3530;52.832;10.680;2022-11-13T04:28:21;12.57;;;9.43;;
6979;SDS011;3530;52.832;10.680;2022-11-13T04:30:46;17.27;;;10.23;;
6979;SDS011;3530;52.832;10.680;2022-11-13T04:33:12;12.65;;;9.57;;
6979;SDS011;3530;52.832;10.680;2022-11-13T04:35:37;11.00;;;8.63;;
6979;SDS011;3530;52.832;10.680;2022-11-13T04:38:03;12.25;;;9.60;;
6979;SDS011;3530;52.832;10.680;2022-11-13T04:40:29;16.63;;;9.45;;
6979;SDS011;3530;52.832;10.680;2022-11-13T04:42:54;9.82;;;8.85;;
6979;SDS011;3530;52.832;10.680;2022-11-13T04:45:21;10.57;;;9.30;;
6979;SDS011;3530;52.832;10.680;2022-11-13T04:47:47;9.32;;;8.27;;
6979;SDS011;3530;52.832;10.680;2022-11-13T04:50:13;9.30;;;8.40;;
6979;SDS011;3530;52.832;10.680;2022-11-13T04:52:40;11.93;;;8.35;;
6979;SDS011;3530;52.832;10.680;2022-11-13T04:55:06;9.25;;;8.35;;
6979;SDS011;3530;52.832;10.680;2022-11-13T04:57:32;10.90;;;8.60;;
6979;SDS011;3530;52.832;10.680;2022-11-13T04:59:57;11.23;;;8.95;;
6979;SDS011;3530;52.832;10.680;2022-11-13T05:02:22;8.93;;;8.13;;
6979;SDS011;3530;52.832;10.680;2022-11-13T05:04:48;10.20;;;9.13;;
6979;SDS011;3530;52.832;10.680;2022-11-13T05:07:14;9.18;;;8.20;;
6979;SDS011;3530;52.832;10.680;2022-11-13T05:09:39;8.55;;;7.60;;
6979;SDS011;3530;52.832;10.680;2022-11-13T05:12:05;9.15;;;8.23;;
6979;SDS011;3530;52.832;10.680;2022-11-13T05:14:33;9.65;;;8.70;;
6979;SDS011;3530;52.832;10.680;2022-11-13T05:16:59;8.95;;;7.95;;
6979;SDS011;3530;52.832;10.680;2022-11-13T05:19:25;10.98;;;8.27;;
6979;SDS011;3530;52.832;10.680;2022-11-13T05:21:50;8.88;;;7.97;;
6979;SDS011;3530;52.832;10.680;2022-11-13T05:24:16;11.55;;;8.45;;
6979;SDS011;3530;52.832;10.680;2022-11-13T05:26:41;9.98;;;8.77;;
6979;SDS011;3530;52.832;10.680;2022-11-13T05:29:06;11.32;;;9.55;;
6979;SDS011;3530;52.832;10.680;2022-11-13T05:31:32;10.75;;;9.65;;
6979;SDS011;3530;52.832;10.680;2022-11-13T05:33:57;9.50;;;8.50;;
6979;SDS011;3530;52.832;10.680;2022-11-13T05:36:22;13.13;;;8.00;;
6979;SDS011;3530;52.832;10.680;2022-11-13T05:38:48;14.77;;;9.02;;
6979;SDS011;3530;52.832;10.680;2022-11-13T05:41:15;9.68;;;8.35;;
6979;SDS011;3530;52.832;10.680;2022-11-13T05:43:42;9.73;;;8.32;;
6979;SDS011;3530;52.832;10.680;2022-11-13T05:46:08;12.63;;;8.10;;
6979;SDS011;3530;52.832;10.680;2022-11-13T05:48:36;12.00;;;8.35;;
6979;SDS011;3530;52.832;10.680;2022-11-13T05:51:09;11.23;;;8.85;;
6979;SDS011;3530;52.832;10.680;2022-11-13T05:53:38;10.68;;;9.27;;
6979;SDS011;3530;52.832;10.680;2022-11-13T05:56:14;11.13;;;9.27;;
6979;SDS011;3530;52.832;10.680;2022-11-13T05:58:42;13.82;;;9.25;;
6979;SDS011;3530;52.832;10.680;2022-11-13T06:01:09;12.88;;;8.60;;
6979;SDS011;3530;52.832;10.680;2022-11-13T06:03:35;11.77;;;9.15;;
6979;SDS011;3530;52.832;10.680;2022-11-13T06:06:01;12.25;;;8.70;;
6979;SDS011;3530;52.832;10.680;2022-11-13T06:08:27;10.68;;;8.93;;
6979;SDS011;3530;52.832;10.680;2022-11-13T06:10:57;11.63;;;8.75;;
6979;SDS011;3530;52.832;10.680;2022-11-13T06:13:26;9.70;;;8.43;;
6979;SDS011;3530;52.832;10.680;2022-11-13T06:15:52;10.73;;;8.57;;
6979;SDS011;3530;52.832;10.680;2022-11-13T06:18:21;9.30;;;8.32;;
6979;SDS011;3530;52.832;10.680;2022-11-13T06:20:47;12.80;;;8.73;;
6979;SDS011;3530;52.832;10.680;2022-11-13T06:23:12;9.05;;;8.05;;
6979;SDS011;3530;52.832;10.680;2022-11-13T06:25:38;11.20;;;8.30;;
6979;SDS011;3530;52.832;10.680;2022-11-13T06:28:03;10.90;;;8.15;;
6979;SDS011;3530;52.832;10.680;2022-11-13T06:30:28;9.43;;;7.88;;
6979;SDS011;3530;52.832;10.680;2022-11-13T06:32:54;11.82;;;8.70;;
6979;SDS011;3530;52.832;10.680;2022-11-13T06:35:19;9.13;;;7.93;;
6979;SDS011;3530;52.832;10.680;2022-11-13T06:37:45;11.18;;;7.88;;
6979;SDS011;3530;52.832;10.680;2022-11-13T06:40:10;9.82;;;7.53;;
6979;SDS011;3530;52.832;10.680;2022-11-13T06:42:36;10.00;;;8.57;;
6979;SDS011;3530;52.832;10.680;2022-11-13T06:45:02;10.27;;;8.32;;
6979;SDS011;3530;52.832;10.680;2022-11-13T06:47:28;9.25;;;8.35;;
6979;SDS011;3530;52.832;10.680;2022-11-13T06:49:53;8.45;;;7.60;;
6979;SDS011;3530;52.832;10.680;2022-11-13T06:52:19;9.15;;;7.95;;
6979;SDS011;3530;52.832;10.680;2022-11-13T06:54:44;11.25;;;8.32;;
6979;SDS011;3530;52.832;10.680;2022-11-13T06:57:09;10.05;;;7.97;;
6979;SDS011;3530;52.832;10.680;2022-11-13T06:59:35;10.27;;;7.80;;
6979;SDS011;3530;52.832;10.680;2022-11-13T07:02:00;9.65;;;7.57;;
6979;SDS011;3530;52.832;10.680;2022-11-13T07:04:26;12.25;;;8.30;;
6979;SDS011;3530;52.832;10.680;2022-11-13T07:06:51;8.63;;;7.50;;
6979;SDS011;3530;52.832;10.680;2022-11-13T07:09:17;9.43;;;8.02;;
6979;SDS011;3530;52.832;10.680;2022-11-13T07:11:42;8.43;;;7.28;;
6979;SDS011;3530;52.832;10.680;2022-11-13T07:14:09;9.02;;;7.20;;
6979;SDS011;3530;52.832;10.680;2022-11-13T07:16:35;8.27;;;7.43;;
6979;SDS011;3530;52.832;10.680;2022-11-13T07:19:00;6.90;;;6.03;;
6979;SDS011;3530;52.832;10.680;2022-11-13T07:21:26;9.50;;;7.70;;
6979;SDS011;3530;52.832;10.680;2022-11-13T07:23:51;12.43;;;8.02;;
6979;SDS011;3530;52.832;10.680;2022-11-13T07:26:16;10.43;;;6.35;;
6979;SDS011;3530;52.832;10.680;2022-11-13T07:28:42;9.13;;;7.25;;
6979;SDS011;3530;52.832;10.680;2022-11-13T07:31:08;12.60;;;7.82;;
6979;SDS011;3530;52.832;10.680;2022-11-13T07:33:35;10.23;;;7.70;;
6979;SDS011;3530;52.832;10.680;2022-11-13T07:36:00;8.60;;;7.38;;
6979;SDS011;3530;52.832;10.680;2022-11-13T07:38:26;11.82;;;8.68;;
6979;SDS011;3530;52.832;10.680;2022-11-13T07:40:51;10.82;;;7.55;;
6979;SDS011;3530;52.832;10.680;2022-11-13T07:43:17;10.82;;;7.05;;
6979;SDS011;3530;52.832;10.680;2022-11-13T07:45:42;15.95;;;9.80;;
6979;SDS011;3530;52.832;10.680;2022-11-13T07:48:08;14.13;;;8.40;;
6979;SDS011;3530;52.832;10.680;2022-11-13T07:50:34;11.57;;;7.57;;
6979;SDS011;3530;52.832;10.680;2022-11-13T07:53:02;14.00;;;9.75;;
6979;SDS011;3530;52.832;10.680;2022-11-13T07:55:29;14.38;;;8.35;;
6979;SDS011;3530;52.832;10.680;2022-11-13T07:57:55;13.63;;;8.02;;
6979;SDS011;3530;52.832;10.680;2022-11-13T08:00:22;10.40;;;6.95;;
6979;SDS011;3530;52.832;10.680;2022-11-13T08:02:47;9.68;;;7.40;;
6979;SDS011;3530;52.832;10.680;2022-11-13T08:05:13;11.98;;;8.40;;
6979;SDS011;3530;52.832;10.680;2022-11-13T08:07:39;11.63;;;8.18;;
6979;SDS011;3530;52.832;10.680;2022-11-13T08:10:05;10.07;;;6.97;;
6979;SDS011;3530;52.832;10.680;2022-11-13T08:12:30;10.45;;;6.75;;
6979;SDS011;3530;52.832;10.680;2022-11-13T08:14:56;11.75;;;7.65;;
6979;SDS011;3530;52.832;10.680;2022-11-13T08:17:21;14.32;;;8.15;;
6979;SDS011;3530;52.832;10.680;2022-11-13T08:19:47;10.50;;;7.45;;
6979;SDS011;3530;52.832;10.680;2022-11-13T08:22:12;13.05;;;7.03;;
6979;SDS011;3530;52.832;10.680;2022-11-13T08:24:38;10.10;;;7.20;;
6979;SDS011;3530;52.832;10.680;2022-11-13T08:27:04;8.13;;;6.45;;
6979;SDS011;3530;52.832;10.680;2022-11-13T08:29:30;11.18;;;7.20;;
6979;SDS011;3530;52.832;10.680;2022-11-13T08:31:55;10.63;;;7.45;;
6979;SDS011;3530;52.832;10.680;2022-11-13T08:34:21;10.90;;;7.65;;
6979;SDS011;3530;52.832;10.680;2022-11-13T08:36:46;12.88;;;7.85;;
6979;SDS011;3530;52.832;10.680;2022-11-13T08:39:12;9.65;;;6.22;;
6979;SDS011;3530;52.832;10.680;2022-11-13T08:41:38;7.47;;;5.40;;
6979;SDS011;3530;52.832;10.680;2022-11-13T08:44:03;11.98;;;6.85;;
6979;SDS011;3530;52.832;10.680;2022-11-13T08:46:29;6.90;;;5.28;;
6979;SDS011;3530;52.832;10.680;2022-11-13T08:48:54;9.65;;;6.45;;
6979;SDS011;3530;52.832;10.680;2022-11-13T08:51:19;7.03;;;6.25;;
6979;SDS011;3530;52.832;10.680;2022-11-13T08:53:45;10.10;;;6.15;;
6979;SDS011;3530;52.832;10.680;2022-11-13T08:56:11;11.43;;;6.65;;
6979;SDS011;3530;52.832;10.680;2022-11-13T08:58:36;10.85;;;6.93;;
6979;SDS011;3530;52.832;10.680;2022-11-13T09:01:02;8.88;;;6.18;;
6979;SDS011;3530;52.832;10.680;2022-11-13T09:03:28;12.00;;;6.85;;
6979;SDS011;3530;52.832;10.680;2022-11-13T09:05:53;9.75;;;5.65;;
6979;SDS011;3530;52.832;10.680;2022-11-13T09:08:19;8.85;;;6.18;;
6979;SDS011;3530;52.832;10.680;2022-11-13T09:10:44;9.52;;;5.82;;
6979;SDS011;3530;52.832;10.680;2022-11-13T09:13:09;12.00;;;6.28;;
6979;SDS011;3530;52.832;10.680;2022-11-13T09:15:36;12.82;;;7.72;;
6979;SDS011;3530;52.832;10.680;2022-11-13T09:18:02;12.93;;;6.93;;
6979;SDS011;3530;52.832;10.680;2022-11-13T09:20:28;10.50;;;6.53;;
6979;SDS011;3530;52.832;10.680;2022-11-13T09:25:30;9.70;;;6.75;;
6979;SDS011;3530;52.832;10.680;2022-11-13T09:27:59;10.60;;;7.18;;
6979;SDS011;3530;52.832;10.680;2022-11-13T09:30:25;7.72;;;5.88;;
6979;SDS011;3530;52.832;10.680;2022-11-13T09:32:55;8.73;;;5.40;;
6979;SDS011;3530;52.832;10.680;2022-11-13T09:35:22;10.80;;;7.30;;
6979;SDS011;3530;52.832;10.680;2022-11-13T09:38:01;8.15;;;5.88;;
6979;SDS011;3530;52.832;10.680;2022-11-13T09:40:29;8.43;;;6.28;;
6979;SDS011;3530;52.832;10.680;2022-11-13T09:42:57;6.50;;;5.38;;
6979;SDS011;3530;52.832;10.680;2022-11-13T09:45:23;10.85;;;6.68;;
6979;SDS011;3530;52.832;10.680;2022-11-13T09:47:48;10.00;;;8.05;;
6979;SDS011;3530;52.832;10.680;2022-11-13T09:50:21;7.72;;;6.28;;
6979;SDS011;3530;52.832;10.680;2022-11-13T09:52:48;10.95;;;6.95;;
6979;SDS011;3530;52.832;10.680;2022-11-13T09:55:17;13.80;;;7.22;;
6979;SDS011;3530;52.832;10.680;2022-11-13T09:57:51;12.40;;;7.40;;
6979;SDS011;3530;52.832;10.680;2022-11-13T10:00:38;9.52;;;6.38;;
6979;SDS011;3530;52.832;10.680;2022-11-13T10:03:27;9.40;;;6.22;;
6979;SDS011;3530;52.832;10.680;2022-11-13T10:08:45;14.88;;;7.88;;
6979;SDS011;3530;52.832;10.680;2022-11-13T10:11:18;13.50;;;8.07;;
6979;SDS011;3530;52.832;10.680;2022-11-13T10:13:50;12.55;;;8.68;;
6979;SDS011;3530;52.832;10.680;2022-11-13T10:18:55;10.82;;;6.72;;
6979;SDS011;3530;52.832;10.680;2022-11-13T10:21:30;14.90;;;8.30;;
6979;SDS011;3530;52.832;10.680;2022-11-13T10:24:00;15.45;;;8.00;;
6979;SDS011;3530;52.832;10.680;2022-11-13T10:26:29;10.52;;;7.38;;
6979;SDS011;3530;52.832;10.680;2022-11-13T10:28:59;9.65;;;6.70;;
6979;SDS011;3530;52.832;10.680;2022-11-13T10:31:26;13.57;;;7.95;;
6979;SDS011;3530;52.832;10.680;2022-11-13T10:33:51;18.80;;;9.18;;
6979;SDS011;3530;52.832;10.680;2022-11-13T10:36:35;12.88;;;8.18;;
6979;SDS011;3530;52.832;10.680;2022-11-13T10:39:07;14.80;;;9.60;;
6979;SDS011;3530;52.832;10.680;2022-11-13T10:41:43;18.77;;;10.50;;
6979;SDS011;3530;52.832;10.680;2022-11-13T10:44:17;11.90;;;7.93;;
6979;SDS011;3530;52.832;10.680;2022-11-13T10:46:46;15.70;;;8.93;;
6979;SDS011;3530;52.832;10.680;2022-11-13T10:49:15;16.80;;;11.15;;
6979;SDS011;3530;52.832;10.680;2022-11-13T10:51:53;18.90;;;11.63;;
6979;SDS011;3530;52.832;10.680;2022-11-13T10:54:29;18.48;;;9.68;;
6979;SDS011;3530;52.832;10.680;2022-11-13T10:57:00;15.52;;;9.63;;
6979;SDS011;3530;52.832;10.680;2022-11-13T10:59:40;13.48;;;8.38;;
6979;SDS011;3530;52.832;10.680;2022-11-13T11:04:35;19.52;;;11.68;;
6979;SDS011;3530;52.832;10.680;2022-11-13T11:07:20;19.55;;;11.13;;
6979;SDS011;3530;52.832;10.680;2022-11-13T11:09:46;23.70;;;13.27;;
6979;SDS011;3530;52.832;10.680;2022-11-13T11:12:14;34.45;;;18.63;;
6979;SDS011;3530;52.832;10.680;2022-11-13T11:17:09;21.00;;;12.93;;
6979;SDS011;3530;52.832;10.680;2022-11-13T11:19:37;23.17;;;13.80;;
6979;SDS011;3530;52.832;10.680;2022-11-13T11:22:08;21.88;;;12.45;;
6979;SDS011;3530;52.832;10.680;2022-11-13T11:24:42;25.67;;;15.48;;
6979;SDS011;3530;52.832;10.680;2022-11-13T11:29:45;19.23;;;11.73;;
6979;SDS011;3530;52.832;10.680;2022-11-13T11:35:17;30.83;;;15.13;;
6979;SDS011;3530;52.832;10.680;2022-11-13T11:37:49;33.83;;;18.50;;
6979;SDS011;3530;52.832;10.680;2022-11-13T11:40:25;16.77;;;11.23;;
6979;SDS011;3530;52.832;10.680;2022-11-13T11:45:42;22.75;;;12.77;;
6979;SDS011;3530;52.832;10.680;2022-11-13T11:48:12;25.55;;;14.38;;
6979;SDS011;3530;52.832;10.680;2022-11-13T11:56:39;34.33;;;18.58;;
6979;SDS011;3530;52.832;10.680;2022-11-13T12:07:12;24.70;;;13.50;;
6979;SDS011;3530;52.832;10.680;2022-11-13T12:12:28;23.23;;;13.95;;
6979;SDS011;3530;52.832;10.680;2022-11-13T12:15:23;19.55;;;10.77;;
6979;SDS011;3530;52.832;10.680;2022-11-13T12:18:12;24.52;;;12.98;;
6979;SDS011;3530;52.832;10.680;2022-11-13T12:29:09;22.80;;;13.88;;
6979;SDS011;3530;52.832;10.680;2022-11-13T12:34:43;20.73;;;11.40;;
6979;SDS011;3530;52.832;10.680;2022-11-13T12:37:22;25.67;;;15.48;;
6979;SDS011;3530;52.832;10.680;2022-11-13T12:47:49;22.95;;;12.07;;
6979;SDS011;3530;52.832;10.680;2022-11-13T12:50:21;22.42;;;12.68;;
6979;SDS011;3530;52.832;10.680;2022-11-13T12:53:25;23.85;;;12.70;;
6979;SDS011;3530;52.832;10.680;2022-11-13T12:55:54;20.45;;;12.10;;
6979;SDS011;3530;52.832;10.680;2022-11-13T12:58:24;21.88;;;12.30;;
6979;SDS011;3530;52.832;10.680;2022-11-13T13:12:09;20.42;;;11.65;;
6979;SDS011;3530;52.832;10.680;2022-11-13T13:17:40;19.42;;;10.88;;
6979;SDS011;3530;52.832;10.680;2022-11-13T13:22:55;25.92;;;13.27;;
6979;SDS011;3530;52.832;10.680;2022-11-13T13:25:25;18.85;;;11.50;;
6979;SDS011;3530;52.832;10.680;2022-11-13T13:27:58;16.55;;;10.63;;
6979;SDS011;3530;52.832;10.680;2022-11-13T13:30:28;18.20;;;10.32;;
6979;SDS011;3530;52.832;10.680;2022-11-13T13:33:02;19.08;;;11.57;;
6979;SDS011;3530;52.832;10.680;2022-11-13T13:35:45;21.80;;;12.93;;
6979;SDS011;3530;52.832;10.680;2022-11-13T13:38:27;20.58;;;10.50;;
6979;SDS011;3530;52.832;10.680;2022-11-13T13:46:25;17.60;;;10.93;;
6979;SDS011;3530;52.832;10.680;2022-11-13T13:48:54;22.40;;;10.60;;
6979;SDS011;3530;52.832;10.680;2022-11-13T13:51:34;18.50;;;11.57;;
6979;SDS011;3530;52.832;10.680;2022-11-13T13:54:04;17.83;;;10.80;;
6979;SDS011;3530;52.832;10.680;2022-11-13T13:56:31;18.55;;;10.23;;
6979;SDS011;3530;52.832;10.680;2022-11-13T13:58:56;19.15;;;10.88;;
6979;SDS011;3530;52.832;10.680;2022-11-13T14:01:29;27.23;;;12.20;;
6979;SDS011;3530;52.832;10.680;2022-11-13T14:04:03;17.25;;;9.77;;
6979;SDS011;3530;52.832;10.680;2022-11-13T14:06:29;18.98;;;11.07;;
6979;SDS011;3530;52.832;10.680;2022-11-13T14:08:55;14.27;;;8.38;;
6979;SDS011;3530;52.832;10.680;2022-11-13T14:11:24;22.25;;;13.55;;
6979;SDS011;3530;52.832;10.680;2022-11-13T14:13:53;19.95;;;11.98;;
6979;SDS011;3530;52.832;10.680;2022-11-13T14:16:21;17.10;;;10.68;;
6979;SDS011;3530;52.832;10.680;2022-11-13T14:18:46;25.65;;;12.88;;
6979;SDS011;3530;52.832;10.680;2022-11-13T14:23:50;19.90;;;12.52;;
6979;SDS011;3530;52.832;10.680;2022-11-13T14:26:16;18.45;;;10.43;;
6979;SDS011;3530;52.832;10.680;2022-11-13T14:28:44;19.67;;;11.23;;
6979;SDS011;3530;52.832;10.680;2022-11-13T14:31:13;27.00;;;14.20;;
6979;SDS011;3530;52.832;10.680;2022-11-13T14:33:40;20.40;;;13.43;;
6979;SDS011;3530;52.832;10.680;2022-11-13T14:36:10;18.33;;;10.68;;
6979;SDS011;3530;52.832;10.680;2022-11-13T14:38:42;21.30;;;11.15;;
6979;SDS011;3530;52.832;10.680;2022-11-13T14:41:30;20.05;;;11.90;;
6979;SDS011;3530;52.832;10.680;2022-11-13T14:43:59;20.17;;;12.20;;
6979;SDS011;3530;52.832;10.680;2022-11-13T14:48:52;23.42;;;13.93;;
6979;SDS011;3530;52.832;10.680;2022-11-13T14:51:37;19.77;;;11.40;;
6979;SDS011;3530;52.832;10.680;2022-11-13T14:54:04;20.88;;;10.00;;
6979;SDS011;3530;52.832;10.680;2022-11-13T14:56:35;19.02;;;10.95;;
6979;SDS011;3530;52.832;10.680;2022-11-13T14:59:15;15.70;;;9.27;;
6979;SDS011;3530;52.832;10.680;2022-11-13T15:01:54;20.70;;;11.38;;
6979;SDS011;3530;52.832;10.680;2022-11-13T15:04:21;16.23;;;10.15;;
6979;SDS011;3530;52.832;10.680;2022-11-13T15:06:49;16.45;;;10.65;;
6979;SDS011;3530;52.832;10.680;2022-11-13T15:09:19;19.65;;;10.95;;
6979;SDS011;3530;52.832;10.680;2022-11-13T15:11:45;22.40;;;12.18;;
6979;SDS011;3530;52.832;10.680;2022-11-13T15:14:14;29.02;;;16.40;;
6979;SDS011;3530;52.832;10.680;2022-11-13T15:16:40;24.85;;;14.07;;
6979;SDS011;3530;52.832;10.680;2022-11-13T15:19:08;25.98;;;15.20;;
6979;SDS011;3530;52.832;10.680;2022-11-13T15:21:38;15.70;;;9.23;;
6979;SDS011;3530;52.832;10.680;2022-11-13T15:24:04;24.10;;;12.77;;
6979;SDS011;3530;52.832;10.680;2022-11-13T15:26:30;26.95;;;14.75;;
6979;SDS011;3530;52.832;10.680;2022-11-13T15:28:55;27.65;;;14.52;;
6979;SDS011;3530;52.832;10.680;2022-11-13T15:31:22;24.55;;;12.02;;
6979;SDS011;3530;52.832;10.680;2022-11-13T15:33:50;29.23;;;14.55;;
6979;SDS011;3530;52.832;10.680;2022-11-13T15:36:15;21.92;;;11.82;;
6979;SDS011;3530;52.832;10.680;2022-11-13T15:38:41;23.67;;;13.20;;
6979;SDS011;3530;52.832;10.680;2022-11-13T15:41:14;23.27;;;12.23;;
6979;SDS011;3530;52.832;10.680;2022-11-13T15:43:42;20.48;;;11.80;;
6979;SDS011;3530;52.832;10.680;2022-11-13T15:46:16;22.70;;;12.27;;
6979;SDS011;3530;52.832;10.680;2022-11-13T15:48:43;29.23;;;15.10;;
6979;SDS011;3530;52.832;10.680;2022-11-13T15:51:14;24.58;;;12.75;;
6979;SDS011;3530;52.832;10.680;2022-11-13T15:53:46;30.27;;;17.80;;
6979;SDS011;3530;52.832;10.680;2022-11-13T15:56:13;25.27;;;14.55;;
6979;SDS011;3530;52.832;10.680;2022-11-13T15:58:39;24.20;;;13.63;;
6979;SDS011;3530;52.832;10.680;2022-11-13T16:01:04;24.70;;;14.68;;
6979;SDS011;3530;52.832;10.680;2022-11-13T16:03:30;24.17;;;12.80;;
6979;SDS011;3530;52.832;10.680;2022-11-13T16:05:59;23.65;;;13.77;;
6979;SDS011;3530;52.832;10.680;2022-11-13T16:08:24;29.67;;;15.95;;
6979;SDS011;3530;52.832;10.680;2022-11-13T16:10:50;36.85;;;18.90;;
6979;SDS011;3530;52.832;10.680;2022-11-13T16:13:15;38.33;;;19.30;;